Andre.l — FMFE — position and weather

sailwx.info

Track history (hours):
 
Tides and Currents Weather Stations Pressure Air Temp Water Temp Dewpoint Dewpoint Depression Visibility Wind Speed Wind Dir Waves Ship Positions

Andre.l

Last reported at 2017-Dec-11 17:00 UTC. Time now 2017-Dec-12 10:14 UTC.
Position N 47°12' W 002°51'.

Length 84 m; draft 6.3 m.

Type: Cargo ship. MMSI: 228219600.

Date/timePositionNaut miles runAvg speedWind from/ knotsBaromVisibWave heightAir tempDewpointWater temp
2017-Dec-11 17:00N 47°12' W 002°51'4 7.3
2017-Dec-11 16:30N 47°15' W 002°55'4 7.7
2017-Dec-11 16:00N 47°18' W 002°58'4 8.3
2017-Dec-11 15:30N 47°20' W 003°03'4 8.1
2017-Dec-11 15:00N 47°23' W 003°07'4 7.5
2017-Dec-11 14:30N 47°26' W 003°11'4 7.7
2017-Dec-11 14:00N 47°30' W 003°13'4 7.9
2017-Dec-11 13:30N 47°33' W 003°16'4 8.1
2017-Dec-11 13:00N 47°37' W 003°18'4 8.1
2017-Dec-11 12:30N 47°40' W 003°22'4 8.1
2017-Dec-11 12:00N 47°44' W 003°21'0 0.4
2017-Dec-11 11:28N 47°44' W 003°21'0 0.0
2017-Dec-11 10:58N 47°44' W 003°21'0 0.0
2017-Dec-11 10:28N 47°44' W 003°21'0 0.0
2017-Dec-11 09:58N 47°44' W 003°21'0 0.0
2017-Dec-11 09:28N 47°44' W 003°21'0 0.0
2017-Dec-11 08:58N 47°44' W 003°21'0 0.0
2017-Dec-11 08:28N 47°44' W 003°21'0 0.0
2017-Dec-11 07:58N 47°44' W 003°21'0 0.0
2017-Dec-11 07:28N 47°44' W 003°21'0 0.0
2017-Dec-11 06:58N 47°44' W 003°21'0 0.0
2017-Dec-11 06:30N 47°44' W 003°21'0 0.0
2017-Dec-11 06:01N 47°44' W 003°21'0 0.0
2017-Dec-11 05:30N 47°44' W 003°21'0 0.0
2017-Dec-11 05:00N 47°44' W 003°21'0 0.0
2017-Dec-11 04:30N 47°44' W 003°21'0 0.0
2017-Dec-11 04:00N 47°44' W 003°21'0 0.0
2017-Dec-11 03:31N 47°44' W 003°21'0 0.0
2017-Dec-11 03:00N 47°44' W 003°21'0 0.0
2017-Dec-11 02:30N 47°44' W 003°21'0 0.0
2017-Dec-11 02:01N 47°44' W 003°21'0 0.0
2017-Dec-11 01:31N 47°44' W 003°21'0 0.0
2017-Dec-11 01:00N 47°44' W 003°21'0 0.0
2017-Dec-11 00:30N 47°44' W 003°21'0 0.0
2017-Dec-11 00:01N 47°44' W 003°21'0 0.0
2017-Dec-10 23:30N 47°44' W 003°21'0 0.0
2017-Dec-10 23:01N 47°44' W 003°21'0 0.0
2017-Dec-10 22:30N 47°44' W 003°21'0 0.0
2017-Dec-10 22:01N 47°44' W 003°21'1 1.8
2017-Dec-10 21:30N 47°44' W 003°20'1 1.1
2017-Dec-10 21:01N 47°45' W 003°19'0 0.0
2017-Dec-10 20:30N 47°45' W 003°19'0 0.0
2017-Dec-10 20:00N 47°45' W 003°19'1 2.7
2017-Dec-10 19:31N 47°44' W 003°21'0 0.0
2017-Dec-10 19:01N 47°44' W 003°21'0 0.0
2017-Dec-10 18:30N 47°44' W 003°21'0 0.0
2017-Dec-10 18:00N 47°44' W 003°21'0 0.0
2017-Dec-10 17:31N 47°44' W 003°21'0 0.0
2017-Dec-10 17:01N 47°44' W 003°21'0 0.0
2017-Dec-10 16:31N 47°44' W 003°21'0 0.0
2017-Dec-10 16:00N 47°44' W 003°21'0 0.0
2017-Dec-10 15:31N 47°44' W 003°21'0 0.0
2017-Dec-10 15:01N 47°44' W 003°21'0 0.0
2017-Dec-10 14:31N 47°44' W 003°21'0 0.0
2017-Dec-10 14:00N 47°44' W 003°21'0 0.0
2017-Dec-10 13:30N 47°44' W 003°21'0 0.0
2017-Dec-10 13:00N 47°44' W 003°21'0 0.0
2017-Dec-10 12:30N 47°44' W 003°21'0 0.0
2017-Dec-10 12:01N 47°44' W 003°21'0 0.0
2017-Dec-10 11:30N 47°44' W 003°21'0 0.0
2017-Dec-10 11:01N 47°44' W 003°21'0 0.0
2017-Dec-10 10:31N 47°44' W 003°21'0 0.3
2017-Dec-10 10:01N 47°44' W 003°21'4 7.8
2017-Dec-10 09:30N 47°41' W 003°24'5 9.1
2017-Dec-10 09:00N 47°38' W 003°19'510.2
2017-Dec-10 08:31N 47°33' W 003°16'5 9.7
2017-Dec-10 08:01N 47°29' W 003°13'5 9.5
2017-Dec-10 07:30N 47°25' W 003°08'510.4
2017-Dec-10 07:01N 47°21' W 003°03'510.7
2017-Dec-10 06:31N 47°17' W 002°58'5 9.6
2017-Dec-10 06:00N 47°14' W 002°54'510.2
2017-Dec-10 05:30N 47°10' W 002°49'610.2
2017-Dec-10 04:56N 47°05' W 002°43'410.2
2017-Dec-10 04:30N 47°02' W 002°39'4 7.0
2017-Dec-10 03:58N 46°60' W 002°34'1 1.5
2017-Dec-10 03:31N 47°00' W 002°33'0 0.3
2017-Dec-10 02:59N 47°00' W 002°34'1 2.7
2017-Dec-10 02:30N 46°60' W 002°35'4 7.2
2017-Dec-10 01:59N 47°02' W 002°40'611.6
2017-Dec-10 01:29N 47°06' W 002°45'611.7
2017-Dec-10 01:01N 47°10' W 002°50'612.0
2017-Dec-10 00:31N 47°15' W 002°56'611.9
2017-Dec-10 00:01N 47°20' W 003°01'611.9
2017-Dec-09 23:30N 47°24' W 003°08'611.7
2017-Dec-09 23:00N 47°29' W 003°13'611.6
2017-Dec-09 22:30N 47°34' W 003°16'611.4
2017-Dec-09 22:01N 47°39' W 003°20'5 9.9
2017-Dec-09 21:31N 47°44' W 003°22'2 3.6
2017-Dec-09 21:00N 47°45' W 003°19'0 0.0
2017-Dec-09 20:31N 47°45' W 003°19'0 0.0
2017-Dec-09 20:00N 47°45' W 003°19'2 4.7
2017-Dec-09 19:30N 47°43' W 003°22'510.5
2017-Dec-09 19:01N 47°38' W 003°20'612.0
2017-Dec-09 18:30N 47°33' W 003°16'612.1
2017-Dec-09 18:01N 47°27' W 003°12'611.5
2017-Dec-09 17:31N 47°23' W 003°07'612.1
2017-Dec-09 17:01N 47°19' W 002°60'612.1
2017-Dec-09 16:31N 47°15' W 002°54'611.9
2017-Dec-09 16:00N 47°10' W 002°48'612.1
2017-Dec-09 15:30N 47°06' W 002°42'612.2
2017-Dec-09 15:00N 47°01' W 002°36'612.2
2017-Dec-09 14:31N 46°56' W 002°31'612.3
2017-Dec-09 14:00N 46°52' W 002°24'612.2
2017-Dec-09 13:30N 46°48' W 002°18'612.0
2017-Dec-09 13:00N 46°43' W 002°12'611.9
2017-Dec-09 12:30N 46°39' W 002°06'611.8
2017-Dec-09 12:00N 46°35' W 002°00'611.8
2017-Dec-09 11:30N 46°30' W 001°55'611.8
2017-Dec-09 11:00N 46°26' W 001°49'5 9.6
2017-Dec-09 10:31N 46°22' W 001°44'1 1.2
2017-Dec-09 10:00N 46°22' W 001°45'1 1.1
2017-Dec-09 09:31N 46°22' W 001°44'1 1.8
2017-Dec-09 09:01N 46°22' W 001°46'611.7
2017-Dec-09 08:30N 46°28' W 001°47'2 3.8
2017-Dec-09 08:00N 46°30' W 001°48'0 0.0
2017-Dec-09 07:30N 46°30' W 001°48'0 0.0
2017-Dec-09 07:00N 46°30' W 001°48'1 2.1
2017-Dec-09 06:30N 46°29' W 001°47'3 6.0
2017-Dec-09 06:01N 46°26' W 001°46'2 4.1
2017-Dec-09 05:30N 46°24' W 001°45'3 5.2
2017-Dec-09 05:01N 46°22' W 001°45'3 6.4
2017-Dec-09 04:30N 46°18' W 001°44'3 6.5
2017-Dec-09 04:00N 46°15' W 001°42'3 6.4
2017-Dec-09 03:31N 46°13' W 001°40'4 7.3
2017-Dec-09 03:01N 46°09' W 001°38'4 7.4
2017-Dec-09 02:30N 46°06' W 001°36'1 2.2
2017-Dec-09 02:00N 46°06' W 001°34'0 1.0
2017-Dec-09 01:31N 46°06' W 001°33'1 2.4
2017-Dec-09 01:01N 46°06' W 001°35'2 4.0
2017-Dec-09 00:30N 46°07' W 001°38'5 9.6
2017-Dec-09 00:01N 46°11' W 001°42'5 9.8
2017-Dec-08 23:30N 46°15' W 001°46'5 9.2
2017-Dec-08 23:00N 46°18' W 001°50'3 6.5
2017-Dec-08 22:30N 46°21' W 001°52'3 6.7
2017-Dec-08 22:01N 46°24' W 001°55'3 6.8
2017-Dec-08 21:30N 46°27' W 001°58'3 6.9
2017-Dec-08 21:01N 46°30' W 002°00'4 7.1
2017-Dec-08 20:30N 46°33' W 002°03'4 7.1
2017-Dec-08 20:00N 46°36' W 002°06'3 7.0
2017-Dec-08 19:31N 46°39' W 002°09'4 7.3
2017-Dec-08 19:01N 46°42' W 002°12'4 7.5
2017-Dec-08 18:31N 46°44' W 002°15'4 7.5
2017-Dec-08 18:01N 46°47' W 002°19'4 7.5
2017-Dec-08 17:31N 46°50' W 002°22'4 7.4
2017-Dec-08 17:00N 46°53' W 002°26'4 7.6
2017-Dec-08 16:30N 46°55' W 002°30'4 7.3
2017-Dec-08 16:00N 46°58' W 002°33'5 7.3
2017-Dec-08 15:19N 47°02' W 002°38'3 7.5
2017-Dec-08 14:52N 47°05' W 002°41'3 8.3
2017-Dec-08 14:30N 47°07' W 002°44'4 8.3
2017-Dec-08 14:00N 47°10' W 002°49'4 8.3
2017-Dec-08 13:30N 47°13' W 002°53'4 8.2
2017-Dec-08 13:01N 47°16' W 002°57'4 8.8
2017-Dec-08 12:31N 47°19' W 003°01'5 9.2
2017-Dec-08 12:01N 47°22' W 003°06'4 7.6
2017-Dec-08 11:30N 47°26' W 003°09'4 7.0
2017-Dec-08 11:00N 47°28' W 003°12'4 7.3
2017-Dec-08 10:30N 47°32' W 003°15'4 7.4
2017-Dec-08 10:01N 47°35' W 003°18'4 8.0
2017-Dec-08 09:30N 47°38' W 003°21'4 8.0
2017-Dec-08 09:00N 47°42' W 003°22'3 6.1
2017-Dec-08 08:30N 47°45' W 003°20'0 0.7
2017-Dec-08 08:00N 47°45' W 003°19'0 0.0
2017-Dec-08 07:30N 47°45' W 003°19'0 0.0
2017-Dec-08 07:00N 47°45' W 003°19'0 0.0
2017-Dec-08 06:30N 47°45' W 003°19'2 4.7
2017-Dec-08 06:00N 47°43' W 003°22'5 9.4
2017-Dec-08 05:30N 47°39' W 003°21'5 9.3
2017-Dec-08 05:00N 47°35' W 003°16'4 8.9
2017-Dec-08 04:30N 47°31' W 003°13'4 8.6
2017-Dec-08 04:00N 47°27' W 003°10'4 8.2
2017-Dec-08 03:31N 47°24' W 003°07'5 9.2
2017-Dec-08 03:01N 47°20' W 003°03'510.0
2017-Dec-08 02:30N 47°16' W 002°59'510.0
2017-Dec-08 02:01N 47°12' W 002°55'510.1
2017-Dec-08 01:30N 47°07' W 002°51'610.2
2017-Dec-08 00:53N 47°02' W 002°47'510.2
2017-Dec-08 00:26N 46°58' W 002°44'1210.1
2017-Dec-07 23:12N 46°47' W 002°35'210.1
2017-Dec-07 22:58N 46°45' W 002°34'510.5
2017-Dec-07 22:30N 46°40' W 002°30'510.0
2017-Dec-07 21:59N 46°37' W 002°25'510.3
2017-Dec-07 21:30N 46°35' W 002°18'510.1
2017-Dec-07 21:00N 46°32' W 002°12'510.2
2017-Dec-07 20:30N 46°30' W 002°05'510.1
2017-Dec-07 20:00N 46°28' W 001°59'5 9.9
2017-Dec-07 19:30N 46°25' W 001°52'5 9.9
2017-Dec-07 19:00N 46°23' W 001°46'1 1.6
2017-Dec-07 18:30N 46°22' W 001°45'0 0.7
2017-Dec-07 18:00N 46°22' W 001°45'0 0.3
2017-Dec-07 17:31N 46°22' W 001°45'0 0.2
2017-Dec-07 17:00N 46°22' W 001°45'0 0.7
2017-Dec-07 16:31N 46°22' W 001°45'1 1.3
2017-Dec-07 16:01N 46°22' W 001°44'4 7.5
2017-Dec-07 15:30N 46°24' W 001°49'5 9.5
2017-Dec-07 15:00N 46°28' W 001°53'611.2
2017-Dec-07 14:30N 46°32' W 001°59'510.2
2017-Dec-07 14:00N 46°36' W 002°04'510.5
2017-Dec-07 13:31N 46°40' W 002°09'510.8
2017-Dec-07 13:00N 46°44' W 002°14'510.8
2017-Dec-07 12:30N 46°48' W 002°20'510.5
2017-Dec-07 12:01N 46°51' W 002°25'510.3
2017-Dec-07 11:30N 46°55' W 002°31'510.4
2017-Dec-07 11:00N 46°60' W 002°31'4 8.7
2017-Dec-07 10:31N 47°03' W 002°28'611.3
2017-Dec-07 10:00N 47°08' W 002°22'4 8.5
2017-Dec-07 09:30N 47°11' W 002°18'612.2
2017-Dec-07 09:01N 47°16' W 002°12'5 9.1
2017-Dec-07 08:30N 47°18' W 002°07'0 0.0
2017-Dec-07 08:00N 47°18' W 002°07'0 0.0
2017-Dec-07 07:29N 47°18' W 002°07'0 0.0
2017-Dec-07 07:01N 47°18' W 002°07'0 0.0
2017-Dec-07 06:30N 47°18' W 002°07'1 1.8
2017-Dec-07 06:00N 47°18' W 002°08'4 8.5
2017-Dec-07 05:30N 47°15' W 002°13'510.0
2017-Dec-07 05:00N 47°11' W 002°18'5 9.1
2017-Dec-07 04:30N 47°08' W 002°22'5 9.9
2017-Dec-07 04:00N 47°04' W 002°27'510.5
2017-Dec-07 03:30N 47°01' W 002°33'1 2.4
2017-Dec-07 03:00N 46°60' W 002°34'1 2.0
2017-Dec-07 02:31N 46°59' W 002°35'1 2.1
2017-Dec-07 02:01N 46°60' W 002°34'1 1.7
2017-Dec-07 01:30N 47°00' W 002°33'1 2.3
2017-Dec-07 01:00N 46°60' W 002°34'1 2.0
2017-Dec-07 00:30N 46°59' W 002°36'4 7.2
2017-Dec-06 23:59N 47°02' W 002°40'4 9.4
2017-Dec-06 23:30N 47°06' W 002°43'5 9.3
2017-Dec-06 23:01N 47°10' W 002°47'4 7.3
2017-Dec-06 22:30N 47°12' W 002°51'4 7.8
2017-Dec-06 22:00N 47°15' W 002°55'4 8.1
2017-Dec-06 21:31N 47°18' W 002°59'4 8.6
2017-Dec-06 21:00N 47°21' W 003°03'  
2017-Dec-04 10:31N 45°57' W 001°30'713.6
2017-Dec-04 09:58N 45°49' W 001°27'613.5
2017-Dec-04 09:30N 45°43' W 001°25'713.5
2017-Dec-04 09:01N 45°37' W 001°22'815.3
2017-Dec-04 08:31N 45°39' W 001°11'816.2
2017-Dec-04 08:00N 45°35' W 001°02'815.6
2017-Dec-04 07:30N 45°31' W 000°52'0 0.3
2017-Dec-04 07:00N 45°31' W 000°52'0 0.0
2017-Dec-04 06:30N 45°31' W 000°52'0 0.0
2017-Dec-04 06:00N 45°31' W 000°52'0 0.0
2017-Dec-04 05:30N 45°31' W 000°52'2 4.0
2017-Dec-04 05:00N 45°32' W 000°54'611.9
2017-Dec-04 04:30N 45°34' W 001°02'0 1.0
2017-Dec-04 04:00N 45°34' W 001°03'0 0.1
2017-Dec-04 03:30N 45°34' W 001°03'0 0.0
2017-Dec-04 03:00N 45°34' W 001°03'0 0.0
2017-Dec-04 02:30N 45°34' W 001°03'0 0.0
2017-Dec-04 02:00N 45°34' W 001°03'0 0.0
2017-Dec-04 01:30N 45°34' W 001°03'0 0.0
2017-Dec-04 01:00N 45°34' W 001°03'0 0.1
2017-Dec-04 00:30N 45°34' W 001°03'0 0.1
2017-Dec-04 00:00N 45°34' W 001°03'0 0.0
2017-Dec-03 23:30N 45°34' W 001°03'0 0.2
2017-Dec-03 23:00N 45°34' W 001°03'0 0.2
2017-Dec-03 22:31N 45°34' W 001°03'3 6.1
2017-Dec-03 22:00N 45°36' W 001°05'0 0.2
2017-Dec-03 21:30N 45°36' W 001°05'1 1.2
2017-Dec-03 21:00N 45°37' W 001°06'1 1.4
2017-Dec-03 20:30N 45°36' W 001°05'1 1.0
2017-Dec-03 20:00N 45°36' W 001°06'3 6.7
2017-Dec-03 19:30N 45°35' W 001°02'714.7
2017-Dec-03 19:00N 45°31' W 000°52'1 1.2
2017-Dec-03 18:31N 45°31' W 000°52'0 0.0
2017-Dec-03 18:01N 45°31' W 000°52'0 0.0
2017-Dec-03 17:30N 45°31' W 000°52'0 0.0
2017-Dec-03 17:00N 45°31' W 000°52'4 7.3
2017-Dec-03 16:31N 45°32' W 000°56'612.5
2017-Dec-03 16:01N 45°36' W 001°04'1 2.2
2017-Dec-03 15:30N 45°36' W 001°05'1 1.4
2017-Dec-03 15:00N 45°36' W 001°06'1 1.7
2017-Dec-03 14:30N 45°36' W 001°05'1 1.1
2017-Dec-03 14:00N 45°36' W 001°06'0 0.3
2017-Dec-03 13:31N 45°36' W 001°05'1 1.3
2017-Dec-03 13:00N 45°37' W 001°05'612.6
2017-Dec-03 12:30N 45°40' W 001°13'612.3
2017-Dec-03 12:01N 45°37' W 001°20'3 5.6
2017-Dec-03 11:29N 45°38' W 001°24'3 6.4
2017-Dec-03 10:59N 45°41' W 001°25'3 6.8
2017-Dec-03 10:30N 45°45' W 001°27'5 6.8
2017-Dec-03 09:43N 45°50' W 001°29'1 6.9
2017-Dec-03 09:31N 45°51' W 001°29'3 6.9
2017-Dec-03 09:00N 45°54' W 001°31'4 7.2
2017-Dec-03 08:31N 45°58' W 001°33'4 7.4
2017-Dec-03 08:01N 46°01' W 001°35'4 7.6
2017-Dec-03 07:31N 46°05' W 001°36'4 7.5
2017-Dec-03 07:01N 46°08' W 001°38'4 7.3
2017-Dec-03 06:31N 46°12' W 001°40'4 7.5
2017-Dec-03 06:01N 46°15' W 001°42'4 7.6
2017-Dec-03 05:31N 46°19' W 001°43'4 7.4
2017-Dec-03 05:01N 46°23' W 001°45'4 7.5
2017-Dec-03 04:31N 46°26' W 001°46'4 7.4
2017-Dec-03 04:01N 46°30' W 001°48'0 0.4
2017-Dec-03 03:31N 46°30' W 001°48'0 0.0
2017-Dec-03 03:01N 46°30' W 001°48'1 1.2
2017-Dec-03 02:31N 46°29' W 001°48'3 5.8
2017-Dec-03 02:00N 46°28' W 001°51'510.4
2017-Dec-03 01:31N 46°32' W 001°57'612.0
2017-Dec-03 01:01N 46°36' W 002°03'612.0
2017-Dec-03 00:30N 46°40' W 002°09'611.7
2017-Dec-03 00:01N 46°45' W 002°15'611.9
2017-Dec-02 23:30N 46°49' W 002°21'611.8
2017-Dec-02 23:00N 46°53' W 002°27'611.5
2017-Dec-02 22:30N 46°57' W 002°33'3 5.1
2017-Dec-02 21:59N 46°60' W 002°35'0 0.9
2017-Dec-02 21:29N 46°60' W 002°34'1 1.3
2017-Dec-02 21:00N 47°00' W 002°34'1 1.8
2017-Dec-02 20:30N 47°01' W 002°33'611.4
2017-Dec-02 19:59N 47°05' W 002°39'612.6
2017-Dec-02 19:30N 47°09' W 002°45'612.8
2017-Dec-02 19:00N 47°14' W 002°52'612.6
2017-Dec-02 18:30N 47°18' W 002°58'613.0
2017-Dec-02 18:01N 47°23' W 003°04'612.3
2017-Dec-02 17:30N 47°28' W 003°10'612.8
2017-Dec-02 17:00N 47°33' W 003°15'713.0
2017-Dec-02 16:30N 47°39' W 003°20'611.3
2017-Dec-02 16:01N 47°44' W 003°21'1 2.3
2017-Dec-02 15:30N 47°45' W 003°19'0 0.0
2017-Dec-02 15:01N 47°45' W 003°19'0 0.2
2017-Dec-02 14:30N 47°45' W 003°19'3 5.5
2017-Dec-02 14:01N 47°43' W 003°22'611.1
2017-Dec-02 13:30N 47°37' W 003°19'611.8
2017-Dec-02 13:00N 47°33' W 003°14'611.3
2017-Dec-02 12:30N 47°28' W 003°09'510.9
2017-Dec-02 12:00N 47°24' W 003°05'611.8
2017-Dec-02 11:31N 47°19' W 002°59'611.7
2017-Dec-02 11:00N 47°14' W 002°54'611.5
2017-Dec-02 10:30N 47°10' W 002°49'611.6
2017-Dec-02 09:59N 47°05' W 002°43'611.8
2017-Dec-02 09:30N 47°01' W 002°38'611.8
2017-Dec-02 09:01N 46°56' W 002°32'611.8
2017-Dec-02 08:30N 46°52' W 002°26'611.8
2017-Dec-02 08:00N 46°47' W 002°21'611.7
2017-Dec-02 07:30N 46°43' W 002°15'611.8
2017-Dec-02 07:00N 46°39' W 002°09'611.8
2017-Dec-02 06:30N 46°35' W 002°03'611.8
2017-Dec-02 06:00N 46°31' W 001°57'611.8
2017-Dec-02 05:30N 46°27' W 001°51'611.8
2017-Dec-02 05:00N 46°22' W 001°45'0 0.9
2017-Dec-02 04:30N 46°22' W 001°45'0 0.7
2017-Dec-02 04:01N 46°22' W 001°45'0 0.6
2017-Dec-02 03:30N 46°22' W 001°45'510.0
2017-Dec-02 03:00N 46°27' W 001°46'3 5.8
2017-Dec-02 02:30N 46°30' W 001°48'0 0.0
2017-Dec-02 02:00N 46°30' W 001°48'0 0.2
2017-Dec-02 01:30N 46°30' W 001°48'3 5.2
2017-Dec-02 01:00N 46°27' W 001°47'3 6.3
2017-Dec-02 00:30N 46°24' W 001°46'3 6.0
2017-Dec-02 00:00N 46°21' W 001°45'3 6.0
2017-Dec-01 23:30N 46°19' W 001°44'3 6.1
2017-Dec-01 23:00N 46°16' W 001°43'3 6.0
2017-Dec-01 22:30N 46°13' W 001°41'3 6.2
2017-Dec-01 22:00N 46°10' W 001°39'3 6.2
2017-Dec-01 21:30N 46°07' W 001°37'2 3.9
2017-Dec-01 21:00N 46°06' W 001°35'1 1.5
2017-Dec-01 20:30N 46°06' W 001°34'0 0.6
2017-Dec-01 20:00N 46°06' W 001°33'1 1.3
2017-Dec-01 19:30N 46°06' W 001°34'1 1.5
2017-Dec-01 19:00N 46°06' W 001°35'2 4.2
2017-Dec-01 18:30N 46°08' W 001°37'3 5.6
2017-Dec-01 18:00N 46°10' W 001°39'3 6.1
2017-Dec-01 17:30N 46°13' W 001°40'3 6.4
2017-Dec-01 17:00N 46°16' W 001°42'  
Track history (hours):
 
Tides and Currents Weather Stations Pressure Air Temp Water Temp Dewpoint Dewpoint Depression Visibility Wind Speed Wind Dir Waves Ship Positions

Andre.l

Last reported at 2017-Dec-11 17:00 UTC. Time now 2017-Dec-12 10:14 UTC.
Position N 47°12' W 002°51'.

Length 84 m; draft 6.3 m.

Type: Cargo ship. MMSI: 228219600.

Date/timePositionNaut miles runAvg speedWind from/ knotsBaromVisibWave heightAir tempDewpointWater temp
2017-Dec-11 17:00N 47°12' W 002°51'4 7.3
2017-Dec-11 16:30N 47°15' W 002°55'4 7.7
2017-Dec-11 16:00N 47°18' W 002°58'4 8.3
2017-Dec-11 15:30N 47°20' W 003°03'4 8.1
2017-Dec-11 15:00N 47°23' W 003°07'4 7.5
2017-Dec-11 14:30N 47°26' W 003°11'4 7.7
2017-Dec-11 14:00N 47°30' W 003°13'4 7.9
2017-Dec-11 13:30N 47°33' W 003°16'4 8.1
2017-Dec-11 13:00N 47°37' W 003°18'4 8.1
2017-Dec-11 12:30N 47°40' W 003°22'4 8.1
2017-Dec-11 12:00N 47°44' W 003°21'0 0.4
2017-Dec-11 11:28N 47°44' W 003°21'0 0.0
2017-Dec-11 10:58N 47°44' W 003°21'0 0.0
2017-Dec-11 10:28N 47°44' W 003°21'0 0.0
2017-Dec-11 09:58N 47°44' W 003°21'0 0.0
2017-Dec-11 09:28N 47°44' W 003°21'0 0.0
2017-Dec-11 08:58N 47°44' W 003°21'0 0.0
2017-Dec-11 08:28N 47°44' W 003°21'0 0.0
2017-Dec-11 07:58N 47°44' W 003°21'0 0.0
2017-Dec-11 07:28N 47°44' W 003°21'0 0.0
2017-Dec-11 06:58N 47°44' W 003°21'0 0.0
2017-Dec-11 06:30N 47°44' W 003°21'0 0.0
2017-Dec-11 06:01N 47°44' W 003°21'0 0.0
2017-Dec-11 05:30N 47°44' W 003°21'0 0.0
2017-Dec-11 05:00N 47°44' W 003°21'0 0.0
2017-Dec-11 04:30N 47°44' W 003°21'0 0.0
2017-Dec-11 04:00N 47°44' W 003°21'0 0.0
2017-Dec-11 03:31N 47°44' W 003°21'0 0.0
2017-Dec-11 03:00N 47°44' W 003°21'0 0.0
2017-Dec-11 02:30N 47°44' W 003°21'0 0.0
2017-Dec-11 02:01N 47°44' W 003°21'0 0.0
2017-Dec-11 01:31N 47°44' W 003°21'0 0.0
2017-Dec-11 01:00N 47°44' W 003°21'0 0.0
2017-Dec-11 00:30N 47°44' W 003°21'0 0.0
2017-Dec-11 00:01N 47°44' W 003°21'0 0.0
2017-Dec-10 23:30N 47°44' W 003°21'0 0.0
2017-Dec-10 23:01N 47°44' W 003°21'0 0.0
2017-Dec-10 22:30N 47°44' W 003°21'0 0.0
2017-Dec-10 22:01N 47°44' W 003°21'1 1.8
2017-Dec-10 21:30N 47°44' W 003°20'1 1.1
2017-Dec-10 21:01N 47°45' W 003°19'0 0.0
2017-Dec-10 20:30N 47°45' W 003°19'0 0.0
2017-Dec-10 20:00N 47°45' W 003°19'1 2.7
2017-Dec-10 19:31N 47°44' W 003°21'0 0.0
2017-Dec-10 19:01N 47°44' W 003°21'0 0.0
2017-Dec-10 18:30N 47°44' W 003°21'0 0.0
2017-Dec-10 18:00N 47°44' W 003°21'0 0.0
2017-Dec-10 17:31N 47°44' W 003°21'0 0.0
2017-Dec-10 17:01N 47°44' W 003°21'0 0.0
2017-Dec-10 16:31N 47°44' W 003°21'0 0.0
2017-Dec-10 16:00N 47°44' W 003°21'0 0.0
2017-Dec-10 15:31N 47°44' W 003°21'0 0.0
2017-Dec-10 15:01N 47°44' W 003°21'0 0.0
2017-Dec-10 14:31N 47°44' W 003°21'0 0.0
2017-Dec-10 14:00N 47°44' W 003°21'0 0.0
2017-Dec-10 13:30N 47°44' W 003°21'0 0.0
2017-Dec-10 13:00N 47°44' W 003°21'0 0.0
2017-Dec-10 12:30N 47°44' W 003°21'0 0.0
2017-Dec-10 12:01N 47°44' W 003°21'0 0.0
2017-Dec-10 11:30N 47°44' W 003°21'0 0.0
2017-Dec-10 11:01N 47°44' W 003°21'0 0.0
2017-Dec-10 10:31N 47°44' W 003°21'0 0.3
2017-Dec-10 10:01N 47°44' W 003°21'4 7.8
2017-Dec-10 09:30N 47°41' W 003°24'5 9.1
2017-Dec-10 09:00N 47°38' W 003°19'510.2
2017-Dec-10 08:31N 47°33' W 003°16'5 9.7
2017-Dec-10 08:01N 47°29' W 003°13'5 9.5
2017-Dec-10 07:30N 47°25' W 003°08'510.4
2017-Dec-10 07:01N 47°21' W 003°03'510.7
2017-Dec-10 06:31N 47°17' W 002°58'5 9.6
2017-Dec-10 06:00N 47°14' W 002°54'510.2
2017-Dec-10 05:30N 47°10' W 002°49'610.2
2017-Dec-10 04:56N 47°05' W 002°43'410.2
2017-Dec-10 04:30N 47°02' W 002°39'4 7.0
2017-Dec-10 03:58N 46°60' W 002°34'1 1.5
2017-Dec-10 03:31N 47°00' W 002°33'0 0.3
2017-Dec-10 02:59N 47°00' W 002°34'1 2.7
2017-Dec-10 02:30N 46°60' W 002°35'4 7.2
2017-Dec-10 01:59N 47°02' W 002°40'611.6
2017-Dec-10 01:29N 47°06' W 002°45'611.7
2017-Dec-10 01:01N 47°10' W 002°50'612.0
2017-Dec-10 00:31N 47°15' W 002°56'611.9
2017-Dec-10 00:01N 47°20' W 003°01'611.9
2017-Dec-09 23:30N 47°24' W 003°08'611.7
2017-Dec-09 23:00N 47°29' W 003°13'611.6
2017-Dec-09 22:30N 47°34' W 003°16'611.4
2017-Dec-09 22:01N 47°39' W 003°20'5 9.9
2017-Dec-09 21:31N 47°44' W 003°22'2 3.6
2017-Dec-09 21:00N 47°45' W 003°19'0 0.0
2017-Dec-09 20:31N 47°45' W 003°19'0 0.0
2017-Dec-09 20:00N 47°45' W 003°19'2 4.7
2017-Dec-09 19:30N 47°43' W 003°22'510.5
2017-Dec-09 19:01N 47°38' W 003°20'612.0
2017-Dec-09 18:30N 47°33' W 003°16'612.1
2017-Dec-09 18:01N 47°27' W 003°12'611.5
2017-Dec-09 17:31N 47°23' W 003°07'612.1
2017-Dec-09 17:01N 47°19' W 002°60'612.1
2017-Dec-09 16:31N 47°15' W 002°54'611.9
2017-Dec-09 16:00N 47°10' W 002°48'612.1
2017-Dec-09 15:30N 47°06' W 002°42'612.2
2017-Dec-09 15:00N 47°01' W 002°36'612.2
2017-Dec-09 14:31N 46°56' W 002°31'612.3
2017-Dec-09 14:00N 46°52' W 002°24'612.2
2017-Dec-09 13:30N 46°48' W 002°18'612.0
2017-Dec-09 13:00N 46°43' W 002°12'611.9
2017-Dec-09 12:30N 46°39' W 002°06'611.8
2017-Dec-09 12:00N 46°35' W 002°00'611.8
2017-Dec-09 11:30N 46°30' W 001°55'611.8
2017-Dec-09 11:00N 46°26' W 001°49'5 9.6
2017-Dec-09 10:31N 46°22' W 001°44'1 1.2
2017-Dec-09 10:00N 46°22' W 001°45'1 1.1
2017-Dec-09 09:31N 46°22' W 001°44'1 1.8
2017-Dec-09 09:01N 46°22' W 001°46'611.7
2017-Dec-09 08:30N 46°28' W 001°47'2 3.8
2017-Dec-09 08:00N 46°30' W 001°48'0 0.0
2017-Dec-09 07:30N 46°30' W 001°48'0 0.0
2017-Dec-09 07:00N 46°30' W 001°48'1 2.1
2017-Dec-09 06:30N 46°29' W 001°47'3 6.0
2017-Dec-09 06:01N 46°26' W 001°46'2 4.1
2017-Dec-09 05:30N 46°24' W 001°45'3 5.2
2017-Dec-09 05:01N 46°22' W 001°45'3 6.4
2017-Dec-09 04:30N 46°18' W 001°44'3 6.5
2017-Dec-09 04:00N 46°15' W 001°42'3 6.4
2017-Dec-09 03:31N 46°13' W 001°40'4 7.3
2017-Dec-09 03:01N 46°09' W 001°38'4 7.4
2017-Dec-09 02:30N 46°06' W 001°36'1 2.2
2017-Dec-09 02:00N 46°06' W 001°34'0 1.0
2017-Dec-09 01:31N 46°06' W 001°33'1 2.4
2017-Dec-09 01:01N 46°06' W 001°35'2 4.0
2017-Dec-09 00:30N 46°07' W 001°38'5 9.6
2017-Dec-09 00:01N 46°11' W 001°42'5 9.8
2017-Dec-08 23:30N 46°15' W 001°46'5 9.2
2017-Dec-08 23:00N 46°18' W 001°50'3 6.5
2017-Dec-08 22:30N 46°21' W 001°52'3 6.7
2017-Dec-08 22:01N 46°24' W 001°55'3 6.8
2017-Dec-08 21:30N 46°27' W 001°58'3 6.9
2017-Dec-08 21:01N 46°30' W 002°00'4 7.1
2017-Dec-08 20:30N 46°33' W 002°03'4 7.1
2017-Dec-08 20:00N 46°36' W 002°06'3 7.0
2017-Dec-08 19:31N 46°39' W 002°09'4 7.3
2017-Dec-08 19:01N 46°42' W 002°12'4 7.5
2017-Dec-08 18:31N 46°44' W 002°15'4 7.5
2017-Dec-08 18:01N 46°47' W 002°19'4 7.5
2017-Dec-08 17:31N 46°50' W 002°22'4 7.4
2017-Dec-08 17:00N 46°53' W 002°26'4 7.6
2017-Dec-08 16:30N 46°55' W 002°30'4 7.3
2017-Dec-08 16:00N 46°58' W 002°33'5 7.3
2017-Dec-08 15:19N 47°02' W 002°38'3 7.5
2017-Dec-08 14:52N 47°05' W 002°41'3 8.3
2017-Dec-08 14:30N 47°07' W 002°44'4 8.3
2017-Dec-08 14:00N 47°10' W 002°49'4 8.3
2017-Dec-08 13:30N 47°13' W 002°53'4 8.2
2017-Dec-08 13:01N 47°16' W 002°57'4 8.8
2017-Dec-08 12:31N 47°19' W 003°01'5 9.2
2017-Dec-08 12:01N 47°22' W 003°06'4 7.6
2017-Dec-08 11:30N 47°26' W 003°09'4 7.0
2017-Dec-08 11:00N 47°28' W 003°12'4 7.3
2017-Dec-08 10:30N 47°32' W 003°15'4 7.4
2017-Dec-08 10:01N 47°35' W 003°18'4 8.0
2017-Dec-08 09:30N 47°38' W 003°21'4 8.0
2017-Dec-08 09:00N 47°42' W 003°22'3 6.1
2017-Dec-08 08:30N 47°45' W 003°20'0 0.7
2017-Dec-08 08:00N 47°45' W 003°19'0 0.0
2017-Dec-08 07:30N 47°45' W 003°19'0 0.0
2017-Dec-08 07:00N 47°45' W 003°19'0 0.0
2017-Dec-08 06:30N 47°45' W 003°19'2 4.7
2017-Dec-08 06:00N 47°43' W 003°22'5 9.4
2017-Dec-08 05:30N 47°39' W 003°21'5 9.3
2017-Dec-08 05:00N 47°35' W 003°16'4 8.9
2017-Dec-08 04:30N 47°31' W 003°13'4 8.6
2017-Dec-08 04:00N 47°27' W 003°10'4 8.2
2017-Dec-08 03:31N 47°24' W 003°07'5 9.2
2017-Dec-08 03:01N 47°20' W 003°03'510.0
2017-Dec-08 02:30N 47°16' W 002°59'510.0
2017-Dec-08 02:01N 47°12' W 002°55'510.1
2017-Dec-08 01:30N 47°07' W 002°51'610.2
2017-Dec-08 00:53N 47°02' W 002°47'510.2
2017-Dec-08 00:26N 46°58' W 002°44'1210.1
2017-Dec-07 23:12N 46°47' W 002°35'210.1
2017-Dec-07 22:58N 46°45' W 002°34'510.5
2017-Dec-07 22:30N 46°40' W 002°30'510.0
2017-Dec-07 21:59N 46°37' W 002°25'510.3
2017-Dec-07 21:30N 46°35' W 002°18'510.1
2017-Dec-07 21:00N 46°32' W 002°12'510.2
2017-Dec-07 20:30N 46°30' W 002°05'510.1
2017-Dec-07 20:00N 46°28' W 001°59'5 9.9
2017-Dec-07 19:30N 46°25' W 001°52'5 9.9
2017-Dec-07 19:00N 46°23' W 001°46'1 1.6
2017-Dec-07 18:30N 46°22' W 001°45'0 0.7
2017-Dec-07 18:00N 46°22' W 001°45'0 0.3
2017-Dec-07 17:31N 46°22' W 001°45'0 0.2
2017-Dec-07 17:00N 46°22' W 001°45'0 0.7
2017-Dec-07 16:31N 46°22' W 001°45'1 1.3
2017-Dec-07 16:01N 46°22' W 001°44'4 7.5
2017-Dec-07 15:30N 46°24' W 001°49'5 9.5
2017-Dec-07 15:00N 46°28' W 001°53'611.2
2017-Dec-07 14:30N 46°32' W 001°59'510.2
2017-Dec-07 14:00N 46°36' W 002°04'510.5
2017-Dec-07 13:31N 46°40' W 002°09'510.8
2017-Dec-07 13:00N 46°44' W 002°14'510.8
2017-Dec-07 12:30N 46°48' W 002°20'510.5
2017-Dec-07 12:01N 46°51' W 002°25'510.3
2017-Dec-07 11:30N 46°55' W 002°31'510.4
2017-Dec-07 11:00N 46°60' W 002°31'4 8.7
2017-Dec-07 10:31N 47°03' W 002°28'611.3
2017-Dec-07 10:00N 47°08' W 002°22'4 8.5
2017-Dec-07 09:30N 47°11' W 002°18'612.2
2017-Dec-07 09:01N 47°16' W 002°12'5 9.1
2017-Dec-07 08:30N 47°18' W 002°07'0 0.0
2017-Dec-07 08:00N 47°18' W 002°07'0 0.0
2017-Dec-07 07:29N 47°18' W 002°07'0 0.0
2017-Dec-07 07:01N 47°18' W 002°07'0 0.0
2017-Dec-07 06:30N 47°18' W 002°07'1 1.8
2017-Dec-07 06:00N 47°18' W 002°08'4 8.5
2017-Dec-07 05:30N 47°15' W 002°13'510.0
2017-Dec-07 05:00N 47°11' W 002°18'5 9.1
2017-Dec-07 04:30N 47°08' W 002°22'5 9.9
2017-Dec-07 04:00N 47°04' W 002°27'510.5
2017-Dec-07 03:30N 47°01' W 002°33'1 2.4
2017-Dec-07 03:00N 46°60' W 002°34'1 2.0
2017-Dec-07 02:31N 46°59' W 002°35'1 2.1
2017-Dec-07 02:01N 46°60' W 002°34'1 1.7
2017-Dec-07 01:30N 47°00' W 002°33'1 2.3
2017-Dec-07 01:00N 46°60' W 002°34'1 2.0
2017-Dec-07 00:30N 46°59' W 002°36'4 7.2
2017-Dec-06 23:59N 47°02' W 002°40'4 9.4
2017-Dec-06 23:30N 47°06' W 002°43'5 9.3
2017-Dec-06 23:01N 47°10' W 002°47'4 7.3
2017-Dec-06 22:30N 47°12' W 002°51'4 7.8
2017-Dec-06 22:00N 47°15' W 002°55'4 8.1
2017-Dec-06 21:31N 47°18' W 002°59'4 8.6
2017-Dec-06 21:00N 47°21' W 003°03'  
2017-Dec-04 10:31N 45°57' W 001°30'713.6
2017-Dec-04 09:58N 45°49' W 001°27'613.5
2017-Dec-04 09:30N 45°43' W 001°25'713.5
2017-Dec-04 09:01N 45°37' W 001°22'815.3
2017-Dec-04 08:31N 45°39' W 001°11'816.2
2017-Dec-04 08:00N 45°35' W 001°02'815.6
2017-Dec-04 07:30N 45°31' W 000°52'0 0.3
2017-Dec-04 07:00N 45°31' W 000°52'0 0.0
2017-Dec-04 06:30N 45°31' W 000°52'0 0.0
2017-Dec-04 06:00N 45°31' W 000°52'0 0.0
2017-Dec-04 05:30N 45°31' W 000°52'2 4.0
2017-Dec-04 05:00N 45°32' W 000°54'611.9
2017-Dec-04 04:30N 45°34' W 001°02'0 1.0
2017-Dec-04 04:00N 45°34' W 001°03'0 0.1
2017-Dec-04 03:30N 45°34' W 001°03'0 0.0
2017-Dec-04 03:00N 45°34' W 001°03'0 0.0
2017-Dec-04 02:30N 45°34' W 001°03'0 0.0
2017-Dec-04 02:00N 45°34' W 001°03'0 0.0
2017-Dec-04 01:30N 45°34' W 001°03'0 0.0
2017-Dec-04 01:00N 45°34' W 001°03'0 0.1
2017-Dec-04 00:30N 45°34' W 001°03'0 0.1
2017-Dec-04 00:00N 45°34' W 001°03'0 0.0
2017-Dec-03 23:30N 45°34' W 001°03'0 0.2
2017-Dec-03 23:00N 45°34' W 001°03'0 0.2
2017-Dec-03 22:31N 45°34' W 001°03'3 6.1
2017-Dec-03 22:00N 45°36' W 001°05'0 0.2
2017-Dec-03 21:30N 45°36' W 001°05'1 1.2
2017-Dec-03 21:00N 45°37' W 001°06'1 1.4
2017-Dec-03 20:30N 45°36' W 001°05'1 1.0
2017-Dec-03 20:00N 45°36' W 001°06'3 6.7
2017-Dec-03 19:30N 45°35' W 001°02'714.7
2017-Dec-03 19:00N 45°31' W 000°52'1 1.2
2017-Dec-03 18:31N 45°31' W 000°52'0 0.0
2017-Dec-03 18:01N 45°31' W 000°52'0 0.0
2017-Dec-03 17:30N 45°31' W 000°52'0 0.0
2017-Dec-03 17:00N 45°31' W 000°52'4 7.3
2017-Dec-03 16:31N 45°32' W 000°56'612.5
2017-Dec-03 16:01N 45°36' W 001°04'1 2.2
2017-Dec-03 15:30N 45°36' W 001°05'1 1.4
2017-Dec-03 15:00N 45°36' W 001°06'1 1.7
2017-Dec-03 14:30N 45°36' W 001°05'1 1.1
2017-Dec-03 14:00N 45°36' W 001°06'0 0.3
2017-Dec-03 13:31N 45°36' W 001°05'1 1.3
2017-Dec-03 13:00N 45°37' W 001°05'612.6
2017-Dec-03 12:30N 45°40' W 001°13'612.3
2017-Dec-03 12:01N 45°37' W 001°20'3 5.6
2017-Dec-03 11:29N 45°38' W 001°24'3 6.4
2017-Dec-03 10:59N 45°41' W 001°25'3 6.8
2017-Dec-03 10:30N 45°45' W 001°27'5 6.8
2017-Dec-03 09:43N 45°50' W 001°29'1 6.9
2017-Dec-03 09:31N 45°51' W 001°29'3 6.9
2017-Dec-03 09:00N 45°54' W 001°31'4 7.2
2017-Dec-03 08:31N 45°58' W 001°33'4 7.4
2017-Dec-03 08:01N 46°01' W 001°35'4 7.6
2017-Dec-03 07:31N 46°05' W 001°36'4 7.5
2017-Dec-03 07:01N 46°08' W 001°38'4 7.3
2017-Dec-03 06:31N 46°12' W 001°40'4 7.5
2017-Dec-03 06:01N 46°15' W 001°42'4 7.6
2017-Dec-03 05:31N 46°19' W 001°43'4 7.4
2017-Dec-03 05:01N 46°23' W 001°45'4 7.5
2017-Dec-03 04:31N 46°26' W 001°46'4 7.4
2017-Dec-03 04:01N 46°30' W 001°48'0 0.4
2017-Dec-03 03:31N 46°30' W 001°48'0 0.0
2017-Dec-03 03:01N 46°30' W 001°48'1 1.2
2017-Dec-03 02:31N 46°29' W 001°48'3 5.8
2017-Dec-03 02:00N 46°28' W 001°51'510.4
2017-Dec-03 01:31N 46°32' W 001°57'612.0
2017-Dec-03 01:01N 46°36' W 002°03'612.0
2017-Dec-03 00:30N 46°40' W 002°09'611.7
2017-Dec-03 00:01N 46°45' W 002°15'611.9
2017-Dec-02 23:30N 46°49' W 002°21'611.8
2017-Dec-02 23:00N 46°53' W 002°27'611.5
2017-Dec-02 22:30N 46°57' W 002°33'3 5.1
2017-Dec-02 21:59N 46°60' W 002°35'0 0.9
2017-Dec-02 21:29N 46°60' W 002°34'1 1.3
2017-Dec-02 21:00N 47°00' W 002°34'1 1.8
2017-Dec-02 20:30N 47°01' W 002°33'611.4
2017-Dec-02 19:59N 47°05' W 002°39'612.6
2017-Dec-02 19:30N 47°09' W 002°45'612.8
2017-Dec-02 19:00N 47°14' W 002°52'612.6
2017-Dec-02 18:30N 47°18' W 002°58'613.0
2017-Dec-02 18:01N 47°23' W 003°04'612.3
2017-Dec-02 17:30N 47°28' W 003°10'612.8
2017-Dec-02 17:00N 47°33' W 003°15'713.0
2017-Dec-02 16:30N 47°39' W 003°20'611.3
2017-Dec-02 16:01N 47°44' W 003°21'1 2.3
2017-Dec-02 15:30N 47°45' W 003°19'0 0.0
2017-Dec-02 15:01N 47°45' W 003°19'0 0.2
2017-Dec-02 14:30N 47°45' W 003°19'3 5.5
2017-Dec-02 14:01N 47°43' W 003°22'611.1
2017-Dec-02 13:30N 47°37' W 003°19'611.8
2017-Dec-02 13:00N 47°33' W 003°14'611.3
2017-Dec-02 12:30N 47°28' W 003°09'510.9
2017-Dec-02 12:00N 47°24' W 003°05'611.8
2017-Dec-02 11:31N 47°19' W 002°59'611.7
2017-Dec-02 11:00N 47°14' W 002°54'611.5
2017-Dec-02 10:30N 47°10' W 002°49'611.6
2017-Dec-02 09:59N 47°05' W 002°43'611.8
2017-Dec-02 09:30N 47°01' W 002°38'611.8
2017-Dec-02 09:01N 46°56' W 002°32'611.8
2017-Dec-02 08:30N 46°52' W 002°26'611.8
2017-Dec-02 08:00N 46°47' W 002°21'611.7
2017-Dec-02 07:30N 46°43' W 002°15'611.8
2017-Dec-02 07:00N 46°39' W 002°09'611.8
2017-Dec-02 06:30N 46°35' W 002°03'611.8
2017-Dec-02 06:00N 46°31' W 001°57'611.8
2017-Dec-02 05:30N 46°27' W 001°51'611.8
2017-Dec-02 05:00N 46°22' W 001°45'0 0.9
2017-Dec-02 04:30N 46°22' W 001°45'0 0.7
2017-Dec-02 04:01N 46°22' W 001°45'0 0.6
2017-Dec-02 03:30N 46°22' W 001°45'510.0
2017-Dec-02 03:00N 46°27' W 001°46'3 5.8
2017-Dec-02 02:30N 46°30' W 001°48'0 0.0
2017-Dec-02 02:00N 46°30' W 001°48'0 0.2
2017-Dec-02 01:30N 46°30' W 001°48'3 5.2
2017-Dec-02 01:00N 46°27' W 001°47'3 6.3
2017-Dec-02 00:30N 46°24' W 001°46'3 6.0
2017-Dec-02 00:00N 46°21' W 001°45'3 6.0
2017-Dec-01 23:30N 46°19' W 001°44'3 6.1
2017-Dec-01 23:00N 46°16' W 001°43'3 6.0
2017-Dec-01 22:30N 46°13' W 001°41'3 6.2
2017-Dec-01 22:00N 46°10' W 001°39'3 6.2
2017-Dec-01 21:30N 46°07' W 001°37'2 3.9
2017-Dec-01 21:00N 46°06' W 001°35'1 1.5
2017-Dec-01 20:30N 46°06' W 001°34'0 0.6
2017-Dec-01 20:00N 46°06' W 001°33'1 1.3
2017-Dec-01 19:30N 46°06' W 001°34'1 1.5
2017-Dec-01 19:00N 46°06' W 001°35'2 4.2
2017-Dec-01 18:30N 46°08' W 001°37'3 5.6
2017-Dec-01 18:00N 46°10' W 001°39'3 6.1
2017-Dec-01 17:30N 46°13' W 001°40'3 6.4
2017-Dec-01 17:00N 46°16' W 001°42'  

Dump ship's entire track history